sensor_id;sensor_type;location;lat;lon;timestamp;temperature;humidity
9949;DHT22;5013;51.840;8.276;2022-09-09T00:00:32;16.20;97.10
9949;DHT22;5013;51.840;8.276;2022-09-09T00:03:12;16.30;46.60
9949;DHT22;5013;51.840;8.276;2022-09-09T00:08:19;16.40;99.90
9949;DHT22;5013;51.840;8.276;2022-09-09T00:10:50;16.50;1.00
9949;DHT22;5013;51.840;8.276;2022-09-09T00:13:27;16.50;1.00
9949;DHT22;5013;51.840;8.276;2022-09-09T00:16:21;16.50;1.00
9949;DHT22;5013;51.840;8.276;2022-09-09T00:23:58;16.50;1.00
9949;DHT22;5013;51.840;8.276;2022-09-09T00:26:32;16.50;1.00
9949;DHT22;5013;51.840;8.276;2022-09-09T00:29:05;16.50;1.00
9949;DHT22;5013;51.840;8.276;2022-09-09T00:31:35;16.50;1.00
9949;DHT22;5013;51.840;8.276;2022-09-09T00:36:38;16.60;1.00
9949;DHT22;5013;51.840;8.276;2022-09-09T00:39:04;16.60;1.00
9949;DHT22;5013;51.840;8.276;2022-09-09T00:44:34;16.70;1.00
9949;DHT22;5013;51.840;8.276;2022-09-09T00:47:38;16.70;99.90
9949;DHT22;5013;51.840;8.276;2022-09-09T00:50:29;16.60;1.00
9949;DHT22;5013;51.840;8.276;2022-09-09T00:55:54;16.50;99.90
9949;DHT22;5013;51.840;8.276;2022-09-09T00:58:25;16.50;1.00
9949;DHT22;5013;51.840;8.276;2022-09-09T01:00:55;16.50;91.40
9949;DHT22;5013;51.840;8.276;2022-09-09T01:03:48;16.50;99.90
9949;DHT22;5013;51.840;8.276;2022-09-09T01:06:36;16.50;99.90
9949;DHT22;5013;51.840;8.276;2022-09-09T01:12:12;16.50;99.90
9949;DHT22;5013;51.840;8.276;2022-09-09T01:14:47;16.50;1.00
9949;DHT22;5013;51.840;8.276;2022-09-09T01:25:28;16.40;1.00
9949;DHT22;5013;51.840;8.276;2022-09-09T01:27:57;16.50;1.00
9949;DHT22;5013;51.840;8.276;2022-09-09T01:30:24;16.40;1.00
9949;DHT22;5013;51.840;8.276;2022-09-09T01:32:54;16.30;1.00
9949;DHT22;5013;51.840;8.276;2022-09-09T01:35:36;16.30;99.90
9949;DHT22;5013;51.840;8.276;2022-09-09T01:38:03;16.40;1.00
9949;DHT22;5013;51.840;8.276;2022-09-09T01:40:29;16.40;1.00
9949;DHT22;5013;51.840;8.276;2022-09-09T01:42:55;16.40;54.30
9949;DHT22;5013;51.840;8.276;2022-09-09T01:45:22;16.40;1.00
9949;DHT22;5013;51.840;8.276;2022-09-09T01:47:47;16.30;99.90
9949;DHT22;5013;51.840;8.276;2022-09-09T01:50:15;16.30;1.00
9949;DHT22;5013;51.840;8.276;2022-09-09T01:52:43;16.30;99.90
9949;DHT22;5013;51.840;8.276;2022-09-09T01:55:09;16.30;1.00
9949;DHT22;5013;51.840;8.276;2022-09-09T02:00:30;16.30;99.90
9949;DHT22;5013;51.840;8.276;2022-09-09T02:06:26;16.30;99.90
9949;DHT22;5013;51.840;8.276;2022-09-09T02:08:55;16.30;99.90
9949;DHT22;5013;51.840;8.276;2022-09-09T02:11:24;16.20;99.90
9949;DHT22;5013;51.840;8.276;2022-09-09T02:13:53;16.10;1.00
9949;DHT22;5013;51.840;8.276;2022-09-09T02:16:30;16.10;1.00
9949;DHT22;5013;51.840;8.276;2022-09-09T02:19:24;16.20;1.00
9949;DHT22;5013;51.840;8.276;2022-09-09T02:21:53;16.30;99.90
9949;DHT22;5013;51.840;8.276;2022-09-09T02:24:20;16.20;1.00
9949;DHT22;5013;51.840;8.276;2022-09-09T02:26:49;16.20;99.90
9949;DHT22;5013;51.840;8.276;2022-09-09T02:29:19;16.20;99.90
9949;DHT22;5013;51.840;8.276;2022-09-09T02:31:46;16.30;1.00
9949;DHT22;5013;51.840;8.276;2022-09-09T02:34:14;16.30;97.70
9949;DHT22;5013;51.840;8.276;2022-09-09T02:36:42;16.40;1.00
9949;DHT22;5013;51.840;8.276;2022-09-09T02:39:10;16.40;99.90
9949;DHT22;5013;51.840;8.276;2022-09-09T02:41:39;16.40;1.00
9949;DHT22;5013;51.840;8.276;2022-09-09T02:44:09;16.40;1.00
9949;DHT22;5013;51.840;8.276;2022-09-09T02:51:45;16.40;1.00
9949;DHT22;5013;51.840;8.276;2022-09-09T02:54:27;16.30;99.90
9949;DHT22;5013;51.840;8.276;2022-09-09T02:57:05;16.30;1.00
9949;DHT22;5013;51.840;8.276;2022-09-09T02:59:31;16.20;99.90
9949;DHT22;5013;51.840;8.276;2022-09-09T03:01:57;16.30;99.90
9949;DHT22;5013;51.840;8.276;2022-09-09T03:04:23;16.20;1.00
9949;DHT22;5013;51.840;8.276;2022-09-09T03:06:50;16.30;99.90
9949;DHT22;5013;51.840;8.276;2022-09-09T03:09:16;16.30;99.90
9949;DHT22;5013;51.840;8.276;2022-09-09T03:11:41;16.30;99.90
9949;DHT22;5013;51.840;8.276;2022-09-09T03:14:07;16.30;99.90
9949;DHT22;5013;51.840;8.276;2022-09-09T03:16:33;16.40;34.00
9949;DHT22;5013;51.840;8.276;2022-09-09T03:19:00;16.40;1.00
9949;DHT22;5013;51.840;8.276;2022-09-09T03:21:25;16.40;99.90
9949;DHT22;5013;51.840;8.276;2022-09-09T03:23:51;16.40;13.00
9949;DHT22;5013;51.840;8.276;2022-09-09T03:26:17;16.50;1.00
9949;DHT22;5013;51.840;8.276;2022-09-09T03:28:43;16.50;1.00
9949;DHT22;5013;51.840;8.276;2022-09-09T03:31:08;16.50;99.90
9949;DHT22;5013;51.840;8.276;2022-09-09T03:33:36;16.50;99.90
9949;DHT22;5013;51.840;8.276;2022-09-09T03:36:03;16.50;1.00
9949;DHT22;5013;51.840;8.276;2022-09-09T03:38:28;16.60;44.30
9949;DHT22;5013;51.840;8.276;2022-09-09T03:40:56;16.60;99.90
9949;DHT22;5013;51.840;8.276;2022-09-09T03:43:23;16.60;1.00
9949;DHT22;5013;51.840;8.276;2022-09-09T03:45:50;16.60;44.40
9949;DHT22;5013;51.840;8.276;2022-09-09T03:48:16;16.70;99.90
9949;DHT22;5013;51.840;8.276;2022-09-09T03:50:46;16.70;1.00
9949;DHT22;5013;51.840;8.276;2022-09-09T03:53:12;16.70;1.00
9949;DHT22;5013;51.840;8.276;2022-09-09T03:55:38;16.60;1.00
9949;DHT22;5013;51.840;8.276;2022-09-09T03:58:04;16.60;1.00
9949;DHT22;5013;51.840;8.276;2022-09-09T04:00:29;16.70;1.00
9949;DHT22;5013;51.840;8.276;2022-09-09T04:02:55;16.60;1.00
9949;DHT22;5013;51.840;8.276;2022-09-09T04:05:22;16.70;99.90
9949;DHT22;5013;51.840;8.276;2022-09-09T04:07:47;16.70;1.00
9949;DHT22;5013;51.840;8.276;2022-09-09T04:10:14;16.70;1.00
9949;DHT22;5013;51.840;8.276;2022-09-09T04:12:41;16.70;1.00
9949;DHT22;5013;51.840;8.276;2022-09-09T04:15:07;16.70;1.00
9949;DHT22;5013;51.840;8.276;2022-09-09T04:17:32;16.70;1.00
9949;DHT22;5013;51.840;8.276;2022-09-09T04:19:58;16.70;99.90
9949;DHT22;5013;51.840;8.276;2022-09-09T04:22:24;16.70;1.00
9949;DHT22;5013;51.840;8.276;2022-09-09T04:24:49;16.70;1.00
9949;DHT22;5013;51.840;8.276;2022-09-09T04:27:15;16.70;1.00
9949;DHT22;5013;51.840;8.276;2022-09-09T04:29:41;16.80;1.00
9949;DHT22;5013;51.840;8.276;2022-09-09T04:32:06;16.70;1.00
9949;DHT22;5013;51.840;8.276;2022-09-09T04:34:32;16.70;1.00
9949;DHT22;5013;51.840;8.276;2022-09-09T04:36:58;16.80;1.00
9949;DHT22;5013;51.840;8.276;2022-09-09T04:39:24;16.70;1.00
9949;DHT22;5013;51.840;8.276;2022-09-09T04:41:49;16.70;99.90
9949;DHT22;5013;51.840;8.276;2022-09-09T04:44:15;16.70;1.00
9949;DHT22;5013;51.840;8.276;2022-09-09T04:46:41;16.70;1.00
9949;DHT22;5013;51.840;8.276;2022-09-09T04:49:06;16.80;1.00
9949;DHT22;5013;51.840;8.276;2022-09-09T04:51:32;16.70;1.00
9949;DHT22;5013;51.840;8.276;2022-09-09T04:53:58;16.70;99.90
9949;DHT22;5013;51.840;8.276;2022-09-09T04:56:24;16.70;99.90
9949;DHT22;5013;51.840;8.276;2022-09-09T04:58:52;16.70;99.90
9949;DHT22;5013;51.840;8.276;2022-09-09T05:01:19;16.70;99.90
9949;DHT22;5013;51.840;8.276;2022-09-09T05:03:47;16.80;99.90
9949;DHT22;5013;51.840;8.276;2022-09-09T05:06:18;16.70;1.00
9949;DHT22;5013;51.840;8.276;2022-09-09T05:08:44;16.70;1.00
9949;DHT22;5013;51.840;8.276;2022-09-09T05:11:17;16.80;1.00
9949;DHT22;5013;51.840;8.276;2022-09-09T05:13:44;16.80;1.00
9949;DHT22;5013;51.840;8.276;2022-09-09T05:16:10;16.70;99.90
9949;DHT22;5013;51.840;8.276;2022-09-09T05:18:37;16.80;1.00
9949;DHT22;5013;51.840;8.276;2022-09-09T05:21:03;16.70;99.90
9949;DHT22;5013;51.840;8.276;2022-09-09T05:23:29;16.80;1.00
9949;DHT22;5013;51.840;8.276;2022-09-09T05:25:58;16.80;1.00
9949;DHT22;5013;51.840;8.276;2022-09-09T05:28:27;16.90;1.00
9949;DHT22;5013;51.840;8.276;2022-09-09T05:31:04;16.90;1.00
9949;DHT22;5013;51.840;8.276;2022-09-09T05:33:30;17.00;99.90
9949;DHT22;5013;51.840;8.276;2022-09-09T05:36:05;16.90;1.00
9949;DHT22;5013;51.840;8.276;2022-09-09T05:38:32;16.90;1.00
9949;DHT22;5013;51.840;8.276;2022-09-09T05:40:58;17.00;1.00
9949;DHT22;5013;51.840;8.276;2022-09-09T05:43:25;17.00;99.90
9949;DHT22;5013;51.840;8.276;2022-09-09T05:46:04;17.10;1.00
9949;DHT22;5013;51.840;8.276;2022-09-09T05:48:49;17.10;1.00
9949;DHT22;5013;51.840;8.276;2022-09-09T05:51:25;17.10;99.90
9949;DHT22;5013;51.840;8.276;2022-09-09T05:53:52;17.20;1.00
9949;DHT22;5013;51.840;8.276;2022-09-09T05:56:20;17.20;1.00
9949;DHT22;5013;51.840;8.276;2022-09-09T05:58:47;17.20;1.00
9949;DHT22;5013;51.840;8.276;2022-09-09T06:03:41;17.30;1.00
9949;DHT22;5013;51.840;8.276;2022-09-09T06:06:09;17.40;66.50
9949;DHT22;5013;51.840;8.276;2022-09-09T06:08:37;17.50;1.00
9949;DHT22;5013;51.840;8.276;2022-09-09T06:11:15;17.60;1.00
9949;DHT22;5013;51.840;8.276;2022-09-09T06:13:41;17.80;99.90
9949;DHT22;5013;51.840;8.276;2022-09-09T06:16:15;18.00;1.00
9949;DHT22;5013;51.840;8.276;2022-09-09T06:18:41;18.00;99.90
9949;DHT22;5013;51.840;8.276;2022-09-09T06:21:16;18.00;1.00
9949;DHT22;5013;51.840;8.276;2022-09-09T06:23:41;17.90;1.00
9949;DHT22;5013;51.840;8.276;2022-09-09T06:26:12;18.00;1.00
9949;DHT22;5013;51.840;8.276;2022-09-09T06:28:39;17.90;1.00
9949;DHT22;5013;51.840;8.276;2022-09-09T06:31:08;18.00;1.00
9949;DHT22;5013;51.840;8.276;2022-09-09T06:33:35;18.00;1.00
9949;DHT22;5013;51.840;8.276;2022-09-09T06:36:02;18.00;1.00
9949;DHT22;5013;51.840;8.276;2022-09-09T06:38:29;18.10;99.90
9949;DHT22;5013;51.840;8.276;2022-09-09T06:40:56;18.20;1.00
9949;DHT22;5013;51.840;8.276;2022-09-09T06:43:24;18.30;99.90
9949;DHT22;5013;51.840;8.276;2022-09-09T06:46:01;18.30;99.90
9949;DHT22;5013;51.840;8.276;2022-09-09T06:48:27;18.20;1.00
9949;DHT22;5013;51.840;8.276;2022-09-09T06:53:33;18.20;99.90
9949;DHT22;5013;51.840;8.276;2022-09-09T06:58:35;18.30;99.90
9949;DHT22;5013;51.840;8.276;2022-09-09T07:01:07;18.40;98.90
9949;DHT22;5013;51.840;8.276;2022-09-09T07:03:33;18.40;99.90
9949;DHT22;5013;51.840;8.276;2022-09-09T07:05:59;18.50;99.90
9949;DHT22;5013;51.840;8.276;2022-09-09T07:08:25;18.50;91.20
9949;DHT22;5013;51.840;8.276;2022-09-09T07:10:51;18.50;13.40
9949;DHT22;5013;51.840;8.276;2022-09-09T07:13:26;18.70;99.90
9949;DHT22;5013;51.840;8.276;2022-09-09T07:15:52;18.80;1.00
9949;DHT22;5013;51.840;8.276;2022-09-09T07:18:21;18.80;1.00
9949;DHT22;5013;51.840;8.276;2022-09-09T07:20:56;18.70;1.00
9949;DHT22;5013;51.840;8.276;2022-09-09T07:23:22;18.70;1.00
9949;DHT22;5013;51.840;8.276;2022-09-09T07:25:48;18.70;1.00
9949;DHT22;5013;51.840;8.276;2022-09-09T07:28:14;18.80;1.00
9949;DHT22;5013;51.840;8.276;2022-09-09T07:30:40;19.00;1.00
9949;DHT22;5013;51.840;8.276;2022-09-09T07:33:06;19.10;99.90
9949;DHT22;5013;51.840;8.276;2022-09-09T07:35:31;19.10;99.90
9949;DHT22;5013;51.840;8.276;2022-09-09T07:37:57;19.30;99.90
9949;DHT22;5013;51.840;8.276;2022-09-09T07:40:24;19.30;99.90
9949;DHT22;5013;51.840;8.276;2022-09-09T07:42:49;19.40;11.80
9949;DHT22;5013;51.840;8.276;2022-09-09T07:45:15;19.60;99.90
9949;DHT22;5013;51.840;8.276;2022-09-09T07:47:41;19.90;1.00
9949;DHT22;5013;51.840;8.276;2022-09-09T07:50:09;20.10;1.00
9949;DHT22;5013;51.840;8.276;2022-09-09T07:52:35;20.40;99.90
9949;DHT22;5013;51.840;8.276;2022-09-09T07:55:01;20.40;99.90
9949;DHT22;5013;51.840;8.276;2022-09-09T07:57:30;20.40;37.80
9949;DHT22;5013;51.840;8.276;2022-09-09T07:59:58;20.60;1.00
9949;DHT22;5013;51.840;8.276;2022-09-09T08:02:24;20.70;1.00
9949;DHT22;5013;51.840;8.276;2022-09-09T08:04:51;20.80;99.90
9949;DHT22;5013;51.840;8.276;2022-09-09T08:07:17;20.80;99.90
9949;DHT22;5013;51.840;8.276;2022-09-09T08:09:43;20.90;99.90
9949;DHT22;5013;51.840;8.276;2022-09-09T08:12:09;20.80;99.90
9949;DHT22;5013;51.840;8.276;2022-09-09T08:14:36;20.80;99.90
9949;DHT22;5013;51.840;8.276;2022-09-09T08:17:01;20.60;99.90
9949;DHT22;5013;51.840;8.276;2022-09-09T08:19:27;20.60;99.90
9949;DHT22;5013;51.840;8.276;2022-09-09T08:21:55;20.70;1.00
9949;DHT22;5013;51.840;8.276;2022-09-09T08:24:20;20.90;99.90
9949;DHT22;5013;51.840;8.276;2022-09-09T08:26:47;20.90;99.90
9949;DHT22;5013;51.840;8.276;2022-09-09T08:29:17;21.20;99.90
9949;DHT22;5013;51.840;8.276;2022-09-09T08:31:48;21.40;1.00
9949;DHT22;5013;51.840;8.276;2022-09-09T08:34:15;21.30;54.70
9949;DHT22;5013;51.840;8.276;2022-09-09T08:36:43;21.20;1.00
9949;DHT22;5013;51.840;8.276;2022-09-09T08:39:11;21.10;1.00
9949;DHT22;5013;51.840;8.276;2022-09-09T08:41:56;20.90;99.90
9949;DHT22;5013;51.840;8.276;2022-09-09T08:47:19;20.50;99.90
9949;DHT22;5013;51.840;8.276;2022-09-09T08:52:49;20.20;99.90
9949;DHT22;5013;51.840;8.276;2022-09-09T08:55:27;20.30;99.90
9949;DHT22;5013;51.840;8.276;2022-09-09T08:57:57;20.40;99.90
9949;DHT22;5013;51.840;8.276;2022-09-09T09:00:30;20.50;99.90
9949;DHT22;5013;51.840;8.276;2022-09-09T09:03:35;20.80;99.90
9949;DHT22;5013;51.840;8.276;2022-09-09T09:09:16;22.00;1.00
9949;DHT22;5013;51.840;8.276;2022-09-09T09:12:16;22.50;99.90
9949;DHT22;5013;51.840;8.276;2022-09-09T09:14:43;22.70;99.90
9949;DHT22;5013;51.840;8.276;2022-09-09T09:17:14;22.70;72.10
9949;DHT22;5013;51.840;8.276;2022-09-09T09:19:41;22.80;1.00
9949;DHT22;5013;51.840;8.276;2022-09-09T09:27:34;22.00;40.00
9949;DHT22;5013;51.840;8.276;2022-09-09T09:35:26;21.60;99.90
9949;DHT22;5013;51.840;8.276;2022-09-09T09:37:52;21.70;99.90
9949;DHT22;5013;51.840;8.276;2022-09-09T09:40:19;21.70;99.90
9949;DHT22;5013;51.840;8.276;2022-09-09T09:43:00;21.70;99.90
9949;DHT22;5013;51.840;8.276;2022-09-09T09:48:03;22.10;99.90
9949;DHT22;5013;51.840;8.276;2022-09-09T09:50:29;22.20;99.90
9949;DHT22;5013;51.840;8.276;2022-09-09T09:53:02;22.20;99.90
9949;DHT22;5013;51.840;8.276;2022-09-09T09:55:30;22.30;1.00
9949;DHT22;5013;51.840;8.276;2022-09-09T09:58:13;21.90;1.00
9949;DHT22;5013;51.840;8.276;2022-09-09T10:00:51;22.00;1.00
9949;DHT22;5013;51.840;8.276;2022-09-09T10:03:32;22.10;1.00
9949;DHT22;5013;51.840;8.276;2022-09-09T10:06:03;22.10;1.00
9949;DHT22;5013;51.840;8.276;2022-09-09T10:08:28;21.90;89.00
9949;DHT22;5013;51.840;8.276;2022-09-09T10:11:09;21.80;99.90
9949;DHT22;5013;51.840;8.276;2022-09-09T10:19:15;21.60;99.90
9949;DHT22;5013;51.840;8.276;2022-09-09T10:24:44;21.80;99.90
9949;DHT22;5013;51.840;8.276;2022-09-09T10:30:19;21.90;87.70
9949;DHT22;5013;51.840;8.276;2022-09-09T10:33:08;21.80;1.00
9949;DHT22;5013;51.840;8.276;2022-09-09T10:36:00;21.70;1.00
9949;DHT22;5013;51.840;8.276;2022-09-09T10:38:42;21.70;1.00
9949;DHT22;5013;51.840;8.276;2022-09-09T10:55:13;21.80;1.00
9949;DHT22;5013;51.840;8.276;2022-09-09T10:57:48;22.30;1.00
9949;DHT22;5013;51.840;8.276;2022-09-09T11:00:42;22.80;1.00
9949;DHT22;5013;51.840;8.276;2022-09-09T11:03:37;23.10;99.90
9949;DHT22;5013;51.840;8.276;2022-09-09T11:06:13;23.30;99.90
9949;DHT22;5013;51.840;8.276;2022-09-09T11:08:39;23.40;99.90
9949;DHT22;5013;51.840;8.276;2022-09-09T11:17:03;23.20;99.90
9949;DHT22;5013;51.840;8.276;2022-09-09T11:19:41;23.10;99.90
9949;DHT22;5013;51.840;8.276;2022-09-09T11:25:05;23.00;99.90
9949;DHT22;5013;51.840;8.276;2022-09-09T11:36:02;23.20;99.90
9949;DHT22;5013;51.840;8.276;2022-09-09T11:38:46;23.60;99.90
9949;DHT22;5013;51.840;8.276;2022-09-09T11:41:14;23.60;99.90
9949;DHT22;5013;51.840;8.276;2022-09-09T11:43:43;23.60;99.90
9949;DHT22;5013;51.840;8.276;2022-09-09T11:46:10;23.90;99.90
9949;DHT22;5013;51.840;8.276;2022-09-09T11:48:38;24.10;99.90
9949;DHT22;5013;51.840;8.276;2022-09-09T11:51:12;24.20;99.90
9949;DHT22;5013;51.840;8.276;2022-09-09T11:56:29;24.30;99.90
9949;DHT22;5013;51.840;8.276;2022-09-09T11:59:02;24.50;99.90
9949;DHT22;5013;51.840;8.276;2022-09-09T12:01:35;24.40;99.90
9949;DHT22;5013;51.840;8.276;2022-09-09T12:09:56;24.70;99.90
9949;DHT22;5013;51.840;8.276;2022-09-09T12:17:23;24.70;46.30
9949;DHT22;5013;51.840;8.276;2022-09-09T12:20:08;24.80;22.10
9949;DHT22;5013;51.840;8.276;2022-09-09T12:32:28;24.90;1.00
9949;DHT22;5013;51.840;8.276;2022-09-09T12:37:37;24.30;1.00
9949;DHT22;5013;51.840;8.276;2022-09-09T12:40:20;24.20;1.00
9949;DHT22;5013;51.840;8.276;2022-09-09T12:42:46;23.90;1.00
9949;DHT22;5013;51.840;8.276;2022-09-09T12:45:17;23.70;1.00
9949;DHT22;5013;51.840;8.276;2022-09-09T12:50:29;23.40;99.90
9949;DHT22;5013;51.840;8.276;2022-09-09T12:52:57;22.60;1.00
9949;DHT22;5013;51.840;8.276;2022-09-09T12:55:32;22.30;99.90
9949;DHT22;5013;51.840;8.276;2022-09-09T12:58:05;22.30;99.90
9949;DHT22;5013;51.840;8.276;2022-09-09T13:00:32;22.30;99.90
9949;DHT22;5013;51.840;8.276;2022-09-09T13:03:13;22.50;59.60
9949;DHT22;5013;51.840;8.276;2022-09-09T13:05:39;22.70;1.00
9949;DHT22;5013;51.840;8.276;2022-09-09T13:08:10;22.70;1.00
9949;DHT22;5013;51.840;8.276;2022-09-09T13:10:46;23.00;99.90
9949;DHT22;5013;51.840;8.276;2022-09-09T13:13:51;23.10;99.90
9949;DHT22;5013;51.840;8.276;2022-09-09T13:16:26;23.50;99.90
9949;DHT22;5013;51.840;8.276;2022-09-09T13:18:52;23.70;99.90
9949;DHT22;5013;51.840;8.276;2022-09-09T13:21:19;23.70;99.90
9949;DHT22;5013;51.840;8.276;2022-09-09T13:23:49;23.60;99.90
9949;DHT22;5013;51.840;8.276;2022-09-09T13:26:24;23.70;99.90
9949;DHT22;5013;51.840;8.276;2022-09-09T13:28:52;23.90;99.90
9949;DHT22;5013;51.840;8.276;2022-09-09T13:31:28;23.90;99.90
9949;DHT22;5013;51.840;8.276;2022-09-09T13:33:55;23.90;97.30
9949;DHT22;5013;51.840;8.276;2022-09-09T13:36:32;24.00;98.50
9949;DHT22;5013;51.840;8.276;2022-09-09T13:39:00;24.20;79.60
9949;DHT22;5013;51.840;8.276;2022-09-09T13:41:34;24.30;53.10
9949;DHT22;5013;51.840;8.276;2022-09-09T13:44:02;24.20;52.40
9949;DHT22;5013;51.840;8.276;2022-09-09T13:46:41;23.90;50.70
9949;DHT22;5013;51.840;8.276;2022-09-09T13:54:13;23.90;29.70
9949;DHT22;5013;51.840;8.276;2022-09-09T13:56:40;24.10;28.40
9949;DHT22;5013;51.840;8.276;2022-09-09T13:59:14;24.10;27.30
9949;DHT22;5013;51.840;8.276;2022-09-09T14:01:40;24.00;6.40
9949;DHT22;5013;51.840;8.276;2022-09-09T14:04:06;23.70;4.70
9949;DHT22;5013;51.840;8.276;2022-09-09T14:06:33;23.60;7.90
9949;DHT22;5013;51.840;8.276;2022-09-09T14:09:02;23.50;10.80
9949;DHT22;5013;51.840;8.276;2022-09-09T14:11:28;23.40;19.70
9949;DHT22;5013;51.840;8.276;2022-09-09T14:13:53;23.20;18.80
9949;DHT22;5013;51.840;8.276;2022-09-09T14:16:19;23.10;31.40
9949;DHT22;5013;51.840;8.276;2022-09-09T14:18:46;23.10;34.10
9949;DHT22;5013;51.840;8.276;2022-09-09T14:21:12;22.90;26.90
9949;DHT22;5013;51.840;8.276;2022-09-09T14:23:38;22.90;56.10
9949;DHT22;5013;51.840;8.276;2022-09-09T14:26:05;23.00;54.70
9949;DHT22;5013;51.840;8.276;2022-09-09T14:28:31;23.10;91.30
9949;DHT22;5013;51.840;8.276;2022-09-09T14:31:00;23.10;98.50
9949;DHT22;5013;51.840;8.276;2022-09-09T14:33:26;23.00;99.90
9949;DHT22;5013;51.840;8.276;2022-09-09T14:36:01;23.20;99.90
9949;DHT22;5013;51.840;8.276;2022-09-09T14:38:34;23.40;99.90
9949;DHT22;5013;51.840;8.276;2022-09-09T14:41:04;23.50;99.90
9949;DHT22;5013;51.840;8.276;2022-09-09T14:43:29;23.50;99.90
9949;DHT22;5013;51.840;8.276;2022-09-09T14:46:04;23.50;86.40
9949;DHT22;5013;51.840;8.276;2022-09-09T14:48:31;23.40;99.90
9949;DHT22;5013;51.840;8.276;2022-09-09T14:50:56;23.30;99.90
9949;DHT22;5013;51.840;8.276;2022-09-09T14:53:22;23.30;99.90
9949;DHT22;5013;51.840;8.276;2022-09-09T14:55:47;23.10;99.90
9949;DHT22;5013;51.840;8.276;2022-09-09T14:58:13;23.10;99.90
9949;DHT22;5013;51.840;8.276;2022-09-09T15:00:39;23.00;99.90
9949;DHT22;5013;51.840;8.276;2022-09-09T15:03:04;23.00;99.90
9949;DHT22;5013;51.840;8.276;2022-09-09T15:05:30;22.80;99.90
9949;DHT22;5013;51.840;8.276;2022-09-09T15:07:58;22.60;99.90
9949;DHT22;5013;51.840;8.276;2022-09-09T15:10:24;22.60;99.90
9949;DHT22;5013;51.840;8.276;2022-09-09T15:12:49;22.60;99.90
9949;DHT22;5013;51.840;8.276;2022-09-09T15:15:15;22.60;99.90
9949;DHT22;5013;51.840;8.276;2022-09-09T15:17:41;22.70;99.90
9949;DHT22;5013;51.840;8.276;2022-09-09T15:20:07;22.70;99.90
9949;DHT22;5013;51.840;8.276;2022-09-09T15:22:33;22.50;99.90
9949;DHT22;5013;51.840;8.276;2022-09-09T15:24:59;22.30;99.90
9949;DHT22;5013;51.840;8.276;2022-09-09T15:27:24;22.20;99.90
9949;DHT22;5013;51.840;8.276;2022-09-09T15:29:50;22.10;99.90
9949;DHT22;5013;51.840;8.276;2022-09-09T15:32:17;22.10;99.90
9949;DHT22;5013;51.840;8.276;2022-09-09T15:34:42;22.10;99.90
9949;DHT22;5013;51.840;8.276;2022-09-09T15:37:10;21.90;99.90
9949;DHT22;5013;51.840;8.276;2022-09-09T15:39:39;21.90;99.90
9949;DHT22;5013;51.840;8.276;2022-09-09T15:42:05;21.80;1.00
9949;DHT22;5013;51.840;8.276;2022-09-09T15:44:42;21.70;1.00
9949;DHT22;5013;51.840;8.276;2022-09-09T15:47:10;21.80;1.00
9949;DHT22;5013;51.840;8.276;2022-09-09T15:49:37;21.80;1.00
9949;DHT22;5013;51.840;8.276;2022-09-09T15:52:04;21.80;1.00
9949;DHT22;5013;51.840;8.276;2022-09-09T15:54:34;21.90;1.00
9949;DHT22;5013;51.840;8.276;2022-09-09T15:57:03;21.90;99.90
9949;DHT22;5013;51.840;8.276;2022-09-09T15:59:30;22.00;99.90
9949;DHT22;5013;51.840;8.276;2022-09-09T16:01:57;21.90;99.90
9949;DHT22;5013;51.840;8.276;2022-09-09T16:04:26;21.90;99.90
9949;DHT22;5013;51.840;8.276;2022-09-09T16:06:53;22.00;99.90
9949;DHT22;5013;51.840;8.276;2022-09-09T16:09:20;22.10;99.90
9949;DHT22;5013;51.840;8.276;2022-09-09T16:11:46;22.00;92.70
9949;DHT22;5013;51.840;8.276;2022-09-09T16:14:15;21.90;3.00
9949;DHT22;5013;51.840;8.276;2022-09-09T16:16:41;21.90;99.00
9949;DHT22;5013;51.840;8.276;2022-09-09T16:19:08;21.90;99.90
9949;DHT22;5013;51.840;8.276;2022-09-09T16:21:43;21.80;99.90
9949;DHT22;5013;51.840;8.276;2022-09-09T16:24:11;21.70;1.00
9949;DHT22;5013;51.840;8.276;2022-09-09T16:26:39;21.50;99.90
9949;DHT22;5013;51.840;8.276;2022-09-09T16:29:05;21.40;99.90
9949;DHT22;5013;51.840;8.276;2022-09-09T16:31:32;21.20;37.10
9949;DHT22;5013;51.840;8.276;2022-09-09T16:33:58;21.00;10.90
9949;DHT22;5013;51.840;8.276;2022-09-09T16:36:27;20.90;1.00
9949;DHT22;5013;51.840;8.276;2022-09-09T16:38:58;20.50;99.90
9949;DHT22;5013;51.840;8.276;2022-09-09T16:41:28;20.30;1.00
9949;DHT22;5013;51.840;8.276;2022-09-09T16:44:05;20.00;99.90
9949;DHT22;5013;51.840;8.276;2022-09-09T16:46:36;19.80;99.90
9949;DHT22;5013;51.840;8.276;2022-09-09T16:49:05;19.60;1.00
9949;DHT22;5013;51.840;8.276;2022-09-09T16:51:34;19.50;1.00
9949;DHT22;5013;51.840;8.276;2022-09-09T16:54:01;19.50;99.90
9949;DHT22;5013;51.840;8.276;2022-09-09T16:56:30;19.40;99.90
9949;DHT22;5013;51.840;8.276;2022-09-09T16:58:59;19.50;99.90
9949;DHT22;5013;51.840;8.276;2022-09-09T17:01:30;19.40;1.00
9949;DHT22;5013;51.840;8.276;2022-09-09T17:04:03;19.30;99.90
9949;DHT22;5013;51.840;8.276;2022-09-09T17:06:31;19.30;1.00
9949;DHT22;5013;51.840;8.276;2022-09-09T17:09:02;19.20;1.00
9949;DHT22;5013;51.840;8.276;2022-09-09T17:11:29;19.00;99.90
9949;DHT22;5013;51.840;8.276;2022-09-09T17:13:57;18.70;1.00
9949;DHT22;5013;51.840;8.276;2022-09-09T17:16:27;18.80;1.00
9949;DHT22;5013;51.840;8.276;2022-09-09T17:18:54;18.70;39.10
9949;DHT22;5013;51.840;8.276;2022-09-09T17:21:22;18.70;99.90
9949;DHT22;5013;51.840;8.276;2022-09-09T17:24:03;18.80;74.80
9949;DHT22;5013;51.840;8.276;2022-09-09T17:26:32;18.70;71.50
9949;DHT22;5013;51.840;8.276;2022-09-09T17:29:04;18.60;99.90
9949;DHT22;5013;51.840;8.276;2022-09-09T17:31:30;18.70;99.90
9949;DHT22;5013;51.840;8.276;2022-09-09T17:33:57;18.60;99.90
9949;DHT22;5013;51.840;8.276;2022-09-09T17:36:29;18.60;99.90
9949;DHT22;5013;51.840;8.276;2022-09-09T17:38:55;18.60;99.90
9949;DHT22;5013;51.840;8.276;2022-09-09T17:41:23;18.60;99.90
9949;DHT22;5013;51.840;8.276;2022-09-09T17:43:50;18.50;99.90
9949;DHT22;5013;51.840;8.276;2022-09-09T17:46:19;18.40;99.90
9949;DHT22;5013;51.840;8.276;2022-09-09T17:48:49;18.40;1.00
9949;DHT22;5013;51.840;8.276;2022-09-09T17:51:18;18.40;1.00
9949;DHT22;5013;51.840;8.276;2022-09-09T17:53:48;18.30;99.90
9949;DHT22;5013;51.840;8.276;2022-09-09T17:56:17;18.40;99.90
9949;DHT22;5013;51.840;8.276;2022-09-09T17:58:43;18.30;99.90
9949;DHT22;5013;51.840;8.276;2022-09-09T18:01:20;18.40;1.00
9949;DHT22;5013;51.840;8.276;2022-09-09T18:03:49;18.40;99.90
9949;DHT22;5013;51.840;8.276;2022-09-09T18:06:21;18.30;99.90
9949;DHT22;5013;51.840;8.276;2022-09-09T18:08:52;18.40;99.90
9949;DHT22;5013;51.840;8.276;2022-09-09T18:11:21;18.40;1.00
9949;DHT22;5013;51.840;8.276;2022-09-09T18:13:52;18.30;1.00
9949;DHT22;5013;51.840;8.276;2022-09-09T18:16:18;18.40;1.00
9949;DHT22;5013;51.840;8.276;2022-09-09T18:18:45;18.30;1.00
9949;DHT22;5013;51.840;8.276;2022-09-09T18:21:13;18.20;1.00
9949;DHT22;5013;51.840;8.276;2022-09-09T18:23:41;18.20;99.90
9949;DHT22;5013;51.840;8.276;2022-09-09T18:26:16;18.20;42.10
9949;DHT22;5013;51.840;8.276;2022-09-09T18:28:46;18.20;99.90
9949;DHT22;5013;51.840;8.276;2022-09-09T18:31:13;18.20;1.00
9949;DHT22;5013;51.840;8.276;2022-09-09T18:33:41;18.10;1.00
9949;DHT22;5013;51.840;8.276;2022-09-09T18:36:28;18.10;99.90
9949;DHT22;5013;51.840;8.276;2022-09-09T18:38:58;18.10;99.90
9949;DHT22;5013;51.840;8.276;2022-09-09T18:41:30;17.90;99.90
9949;DHT22;5013;51.840;8.276;2022-09-09T18:43:58;18.00;1.00
9949;DHT22;5013;51.840;8.276;2022-09-09T18:46:26;18.00;1.00
9949;DHT22;5013;51.840;8.276;2022-09-09T18:48:52;18.00;1.00